Terminal Aerodrome Forecast
Issued by NWS

Home | Current Version | Previous Version | Graphics & Text | Print | Product List | Glossary On
Versions: 1 2 3 4 5 6 7 8 9 10 11 12 13 14
000
FTUS43 KOAX 211700
TAFCDR
TAF
KCDR 211720Z 2118/2218 22008KT P6SM SCT120
     FM212000 22013G24KT P6SM SCT120 BKN250
     FM220200 22010KT P6SM BKN100 BKN200
     FM220500 29008KT P6SM BKN250=

USA.gov is the U.S. government's official web portal to all federal, state and local government web resources and services.